Time;durP1;ratioP1;P1;durP2;ratioP2;P2;SDS_P1;SDS_P2;PMS_P1;PMS_P2;Temp;Humidity;BMP_temperature;BMP_pressure;BME280_temperature;BME280_humidity;BME280_pressure;Samples;Min_cycle;Max_cycle;Signal;HPM_P1;HPM_P2
2022/04/16 00:00:27;;;;;;;20.75;15.73;;;;;;;;;;4983434;28;98611;-78
2022/04/16 00:02:55;;;;;;;17.13;15.30;;;;;;;;;;4985103;28;92377;-80
2022/04/16 00:05:23;;;;;;;19.45;15.43;;;;;;;;;;5016793;28;93677;-81
2022/04/16 00:08:06;;;;;;;22.45;16.67;;;;;;;;;;5001576;28;96158;-79
2022/04/16 00:10:33;;;;;;;18.33;15.90;;;;;;;;;;5019505;28;92293;-76
2022/04/16 00:13:01;;;;;;;17.52;15.25;;;;;;;;;;5001251;28;94495;-80
2022/04/16 00:15:27;;;;;;;19.75;16.23;;;;;;;;;;5018634;28;94527;-84
2022/04/16 00:17:57;;;;;;;17.23;15.50;;;;;;;;;;5022743;28;91536;-80
2022/04/16 00:20:26;;;;;;;18.88;15.88;;;;;;;;;;5018791;28;94163;-82
2022/04/16 00:22:54;;;;;;;17.85;15.68;;;;;;;;;;5001380;28;92395;-80
2022/04/16 00:25:21;;;;;;;18.83;15.55;;;;;;;;;;5017706;28;94766;-81
2022/04/16 00:27:47;;;;;;;19.08;16.60;;;;;;;;;;5018973;28;92185;-78
2022/04/16 00:30:16;;;;;;;17.85;15.48;;;;;;;;;;5018836;28;92155;-79
2022/04/16 00:32:44;;;;;;;22.33;16.13;;;;;;;;;;5018898;28;92675;-77
2022/04/16 00:35:11;;;;;;;21.60;16.55;;;;;;;;;;5000293;28;95274;-82
2022/04/16 00:37:37;;;;;;;20.25;16.20;;;;;;;;;;5017591;28;93481;-81
2022/04/16 00:40:04;;;;;;;20.50;16.50;;;;;;;;;;5021892;28;92846;-77
2022/04/16 00:42:32;;;;;;;19.00;16.92;;;;;;;;;;5020723;28;91648;-80
2022/04/16 00:44:58;;;;;;;20.58;15.93;;;;;;;;;;5026238;28;92180;-77
2022/04/16 00:47:25;;;;;;;21.50;15.48;;;;;;;;;;5021348;28;96772;-80
2022/04/16 00:49:51;;;;;;;22.15;17.42;;;;;;;;;;5016743;28;94578;-83
2022/04/16 00:52:17;;;;;;;24.08;16.90;;;;;;;;;;5018149;28;96290;-82
2022/04/16 00:54:44;;;;;;;21.80;17.48;;;;;;;;;;5018042;28;95074;-77
2022/04/16 00:57:11;;;;;;;19.70;16.48;;;;;;;;;;5018573;28;92211;-80
2022/04/16 00:59:37;;;;;;;18.95;15.88;;;;;;;;;;5017603;28;94163;-79
2022/04/16 01:02:03;;;;;;;20.20;17.35;;;;;;;;;;5020170;28;95285;-79
2022/04/16 01:04:30;;;;;;;22.10;17.80;;;;;;;;;;5017876;28;93739;-79
2022/04/16 01:06:57;;;;;;;21.90;17.90;;;;;;;;;;5023516;28;93310;-76
2022/04/16 01:09:23;;;;;;;21.83;18.02;;;;;;;;;;5022978;28;92130;-75
2022/04/16 01:11:50;;;;;;;21.45;17.83;;;;;;;;;;5022983;28;92380;-77
2022/04/16 01:14:19;;;;;;;21.73;17.58;;;;;;;;;;5016971;28;96518;-76
2022/04/16 01:16:45;;;;;;;24.10;17.98;;;;;;;;;;5020883;28;92301;-78
2022/04/16 01:19:12;;;;;;;23.15;18.02;;;;;;;;;;5018696;28;92746;-78
2022/04/16 01:21:39;;;;;;;20.33;18.05;;;;;;;;;;5018196;28;93030;-81
2022/04/16 01:24:06;;;;;;;22.33;17.90;;;;;;;;;;5019839;28;92249;-79
2022/04/16 01:26:32;;;;;;;22.67;18.00;;;;;;;;;;5017781;28;92780;-79
2022/04/16 01:28:59;;;;;;;20.75;17.80;;;;;;;;;;5016777;28;93040;-80
2022/04/16 01:31:25;;;;;;;20.92;18.30;;;;;;;;;;5017871;28;93344;-79
2022/04/16 01:33:52;;;;;;;19.40;17.45;;;;;;;;;;5007451;28;93610;-78
2022/04/16 01:36:18;;;;;;;22.73;18.60;;;;;;;;;;4997966;28;93271;-76
2022/04/16 01:38:44;;;;;;;27.70;18.42;;;;;;;;;;4978432;28;94619;-80
2022/04/16 01:41:11;;;;;;;22.70;18.50;;;;;;;;;;4980364;28;93506;-82
2022/04/16 01:43:37;;;;;;;21.13;17.77;;;;;;;;;;4997720;28;92340;-80
2022/04/16 01:46:06;;;;;;;19.67;17.00;;;;;;;;;;4982233;28;96327;-79
2022/04/16 01:48:32;;;;;;;19.85;17.75;;;;;;;;;;4997538;28;92239;-78
2022/04/16 01:50:59;;;;;;;25.05;17.83;;;;;;;;;;4997386;28;94548;-80
2022/04/16 01:53:25;;;;;;;21.15;17.55;;;;;;;;;;4997180;28;92935;-77
2022/04/16 01:55:51;;;;;;;23.30;17.90;;;;;;;;;;4998178;28;91500;-74
2022/04/16 01:58:20;;;;;;;24.83;18.83;;;;;;;;;;4998108;28;92985;-81
2022/04/16 02:00:48;;;;;;;23.70;17.85;;;;;;;;;;4997010;28;93292;-79
2022/04/16 02:03:15;;;;;;;22.35;18.27;;;;;;;;;;4978287;28;94661;-77
2022/04/16 02:05:41;;;;;;;24.13;18.75;;;;;;;;;;5000993;28;95990;-84
2022/04/16 02:08:08;;;;;;;22.77;18.60;;;;;;;;;;4998491;28;92556;-75
2022/04/16 02:10:34;;;;;;;26.35;18.58;;;;;;;;;;4997823;28;93420;-76
2022/04/16 02:13:00;;;;;;;26.30;18.38;;;;;;;;;;4982472;28;93954;-76
2022/04/16 02:15:27;;;;;;;27.98;19.85;;;;;;;;;;4982832;28;93919;-76
2022/04/16 02:17:56;;;;;;;27.92;19.42;;;;;;;;;;5001725;28;94037;-75
2022/04/16 02:20:23;;;;;;;22.85;19.88;;;;;;;;;;5003082;28;92893;-75
2022/04/16 02:22:51;;;;;;;28.40;20.35;;;;;;;;;;5002585;28;92171;-76
2022/04/16 02:25:18;;;;;;;24.63;19.13;;;;;;;;;;5003417;28;93536;-75
2022/04/16 02:27:45;;;;;;;28.15;19.60;;;;;;;;;;5003515;28;94714;-77
2022/04/16 02:30:12;;;;;;;25.23;20.35;;;;;;;;;;5002070;28;97284;-74
2022/04/16 02:32:39;;;;;;;28.70;19.85;;;;;;;;;;5002776;28;93437;-77
2022/04/16 02:35:06;;;;;;;26.48;20.90;;;;;;;;;;4983876;28;92359;-77
2022/04/16 02:37:33;;;;;;;29.40;20.70;;;;;;;;;;4980659;28;92317;-80
2022/04/16 02:39:59;;;;;;;23.25;19.58;;;;;;;;;;4997626;28;92174;-77
2022/04/16 02:42:25;;;;;;;26.85;21.48;;;;;;;;;;4998121;28;92246;-80
2022/04/16 02:47:37;;;;;;;28.30;21.42;;;;;;;;;;4996502;28;93808;-78
2022/04/16 02:50:03;;;;;;;29.48;20.52;;;;;;;;;;4982794;28;92392;-80
2022/04/16 02:52:37;;;;;;;28.25;20.50;;;;;;;;;;4997063;28;96880;-76
2022/04/16 02:55:04;;;;;;;30.23;21.58;;;;;;;;;;5003857;28;92309;-76
2022/04/16 02:57:33;;;;;;;29.92;21.17;;;;;;;;;;4998415;28;94438;-83
2022/04/16 02:59:59;;;;;;;28.98;20.75;;;;;;;;;;4996368;28;94065;-80
2022/04/16 03:02:32;;;;;;;31.05;21.30;;;;;;;;;;4996326;28;92601;-80
2022/04/16 03:04:59;;;;;;;26.85;20.65;;;;;;;;;;4977161;28;93840;-81
2022/04/16 03:07:25;;;;;;;26.92;20.90;;;;;;;;;;4978675;28;95088;-75
2022/04/16 03:09:52;;;;;;;36.53;21.13;;;;;;;;;;4996973;28;91586;-76
2022/04/16 03:12:18;;;;;;;28.15;21.17;;;;;;;;;;4993930;28;93291;-80
2022/04/16 03:17:32;;;;;;;31.33;20.70;;;;;;;;;;4994370;28;94762;-81
2022/04/16 03:20:06;;;;;;;26.25;19.77;;;;;;;;;;4996326;28;93828;-79
2022/04/16 03:22:33;;;;;;;26.10;20.63;;;;;;;;;;4981803;28;92257;-78
2022/04/16 03:25:03;;;;;;;30.60;21.20;;;;;;;;;;5000112;28;93431;-82
2022/04/16 03:27:30;;;;;;;28.67;20.25;;;;;;;;;;4981926;28;94782;-76
2022/04/16 03:29:56;;;;;;;26.13;20.02;;;;;;;;;;4999341;28;92360;-77
2022/04/16 03:32:22;;;;;;;29.38;21.30;;;;;;;;;;4998865;28;96335;-80
2022/04/16 03:34:48;;;;;;;29.13;20.40;;;;;;;;;;4985726;28;95393;-80
2022/04/16 03:37:15;;;;;;;27.92;20.05;;;;;;;;;;4982018;28;95580;-79
2022/04/16 03:39:43;;;;;;;29.92;20.75;;;;;;;;;;4999515;28;93603;-78
2022/04/16 03:42:11;;;;;;;29.33;20.88;;;;;;;;;;4998419;28;94721;-78
2022/04/16 03:44:37;;;;;;;34.60;21.45;;;;;;;;;;4999285;28;96157;-80
2022/04/16 03:47:04;;;;;;;30.27;20.85;;;;;;;;;;4999937;28;93568;-78
2022/04/16 03:49:30;;;;;;;33.13;21.48;;;;;;;;;;4999757;28;92294;-82
2022/04/16 03:51:56;;;;;;;31.08;21.23;;;;;;;;;;4981592;28;96012;-78
2022/04/16 03:59:59;;;;;;;30.63;20.77;;;;;;;;;;4985015;28;92966;-75
2022/04/16 04:02:26;;;;;;;31.63;21.17;;;;;;;;;;4999496;28;92166;-81
2022/04/16 04:04:52;;;;;;;31.70;21.73;;;;;;;;;;4999539;28;93393;-78
2022/04/16 04:07:18;;;;;;;27.02;21.10;;;;;;;;;;4997520;28;96537;-78
2022/04/16 04:09:45;;;;;;;33.90;21.77;;;;;;;;;;4999627;28;92396;-76
2022/04/16 04:12:12;;;;;;;29.95;21.30;;;;;;;;;;4999551;28;92607;-79
2022/04/16 04:14:39;;;;;;;30.38;21.55;;;;;;;;;;4998833;28;93369;-80
2022/04/16 04:17:07;;;;;;;30.80;21.70;;;;;;;;;;5002195;28;92188;-79
2022/04/16 04:19:37;;;;;;;30.27;20.83;;;;;;;;;;4998457;28;94887;-80
2022/04/16 04:22:04;;;;;;;33.58;21.85;;;;;;;;;;4999104;28;92604;-78
2022/04/16 04:24:31;;;;;;;33.53;21.40;;;;;;;;;;4999432;28;93502;-78
2022/04/16 04:26:58;;;;;;;32.42;21.52;;;;;;;;;;4998753;28;93193;-80
2022/04/16 04:29:24;;;;;;;31.92;22.45;;;;;;;;;;4998742;28;92276;-82
2022/04/16 04:31:51;;;;;;;32.08;21.95;;;;;;;;;;4997309;28;94753;-79
2022/04/16 04:34:17;;;;;;;34.88;23.50;;;;;;;;;;4979650;28;93536;-77
2022/04/16 04:36:44;;;;;;;35.45;23.13;;;;;;;;;;4998804;28;92299;-77
2022/04/16 04:39:10;;;;;;;34.33;21.85;;;;;;;;;;5001639;28;92266;-78
2022/04/16 04:41:36;;;;;;;36.00;23.10;;;;;;;;;;4998476;28;92289;-78
2022/04/16 04:44:03;;;;;;;30.23;22.85;;;;;;;;;;4998254;28;93699;-77
2022/04/16 04:46:29;;;;;;;35.20;22.88;;;;;;;;;;4998318;28;93990;-76
2022/04/16 04:48:56;;;;;;;32.88;22.52;;;;;;;;;;4998317;28;91917;-77
2022/04/16 04:51:22;;;;;;;31.05;21.83;;;;;;;;;;4998598;28;92550;-78
2022/04/16 04:53:48;;;;;;;29.77;22.42;;;;;;;;;;4998094;28;93702;-78
2022/04/16 04:56:15;;;;;;;39.30;23.90;;;;;;;;;;4996915;28;94656;-78
2022/04/16 04:58:41;;;;;;;33.22;23.05;;;;;;;;;;4998358;28;95567;-78
2022/04/16 05:01:07;;;;;;;36.22;23.08;;;;;;;;;;5003529;28;93881;-75
2022/04/16 05:03:34;;;;;;;34.95;23.10;;;;;;;;;;5000042;28;94560;-77
2022/04/16 05:06:00;;;;;;;34.92;24.13;;;;;;;;;;4998133;28;94001;-77
2022/04/16 05:08:28;;;;;;;38.17;25.05;;;;;;;;;;4998377;28;92297;-76
2022/04/16 05:10:54;;;;;;;35.67;24.70;;;;;;;;;;4998433;28;92845;-77
2022/04/16 05:13:20;;;;;;;33.22;23.85;;;;;;;;;;4998714;28;92356;-75
2022/04/16 05:15:47;;;;;;;33.60;24.30;;;;;;;;;;4998164;28;92192;-80
2022/04/16 05:18:13;;;;;;;35.05;24.58;;;;;;;;;;4997724;28;92869;-79
2022/04/16 05:20:40;;;;;;;40.67;25.90;;;;;;;;;;4978748;28;96398;-77
2022/04/16 05:23:06;;;;;;;37.97;24.67;;;;;;;;;;5001193;28;92389;-78
2022/04/16 05:25:32;;;;;;;37.22;25.73;;;;;;;;;;4997804;28;92626;-79
2022/04/16 05:27:59;;;;;;;36.15;25.27;;;;;;;;;;4997920;28;92452;-77
2022/04/16 05:30:33;;;;;;;34.22;25.00;;;;;;;;;;4997880;28;93444;-75
2022/04/16 05:33:05;;;;;;;40.53;24.95;;;;;;;;;;4997747;28;93433;-77
2022/04/16 05:35:32;;;;;;;39.33;26.95;;;;;;;;;;4996762;28;92335;-78
2022/04/16 05:37:59;;;;;;;39.78;25.77;;;;;;;;;;4998408;28;92919;-76
2022/04/16 05:40:29;;;;;;;48.80;28.85;;;;;;;;;;4997579;28;92825;-77
2022/04/16 05:42:55;;;;;;;31.25;23.65;;;;;;;;;;4998522;28;92181;-78
2022/04/16 05:45:21;;;;;;;31.42;23.70;;;;;;;;;;4980618;28;95215;-77
2022/04/16 05:47:48;;;;;;;36.88;24.77;;;;;;;;;;4997657;28;92224;-77
2022/04/16 05:50:14;;;;;;;32.00;23.65;;;;;;;;;;4997541;28;93024;-77
2022/04/16 05:52:41;;;;;;;33.00;23.35;;;;;;;;;;4996553;28;94670;-76
2022/04/16 05:55:08;;;;;;;29.42;23.30;;;;;;;;;;4997406;28;92345;-76
2022/04/16 05:57:34;;;;;;;38.95;24.23;;;;;;;;;;4994446;28;93568;-77
2022/04/16 06:00:01;;;;;;;35.70;24.30;;;;;;;;;;4979788;28;93085;-78
2022/04/16 06:02:28;;;;;;;34.17;24.67;;;;;;;;;;4980020;28;93130;-78
2022/04/16 06:04:54;;;;;;;30.75;24.05;;;;;;;;;;4996802;28;93970;-78
2022/04/16 06:07:20;;;;;;;32.90;25.42;;;;;;;;;;5000096;28;93510;-77
2022/04/16 06:09:47;;;;;;;33.10;25.45;;;;;;;;;;4995797;28;94675;-82
2022/04/16 06:12:13;;;;;;;33.42;25.90;;;;;;;;;;4979455;28;94634;-77
2022/04/16 06:14:40;;;;;;;33.75;26.45;;;;;;;;;;4993095;28;92386;-77
2022/04/16 06:17:06;;;;;;;34.63;26.70;;;;;;;;;;4997268;28;92791;-76
2022/04/16 06:19:32;;;;;;;36.95;27.55;;;;;;;;;;4979391;28;93727;-75
2022/04/16 06:21:59;;;;;;;35.25;26.77;;;;;;;;;;4998111;28;92272;-76
2022/04/16 06:24:25;;;;;;;40.85;28.60;;;;;;;;;;4980415;28;95610;-78
2022/04/16 06:26:52;;;;;;;38.95;28.67;;;;;;;;;;5001363;28;91930;-79
2022/04/16 06:29:18;;;;;;;42.70;29.42;;;;;;;;;;4998274;28;92776;-78
2022/04/16 06:31:44;;;;;;;43.55;29.85;;;;;;;;;;4997848;28;93894;-80
2022/04/16 06:34:11;;;;;;;45.45;30.02;;;;;;;;;;4996079;28;94684;-76
2022/04/16 06:36:38;;;;;;;44.22;30.92;;;;;;;;;;4997342;28;94959;-84
2022/04/16 06:39:04;;;;;;;46.42;29.25;;;;;;;;;;4997301;28;93236;-77
2022/04/16 06:41:31;;;;;;;46.40;30.60;;;;;;;;;;4979184;28;92280;-79
2022/04/16 06:43:58;;;;;;;51.17;32.28;;;;;;;;;;4978981;28;95703;-78
2022/04/16 06:46:24;;;;;;;45.85;31.45;;;;;;;;;;4996806;28;93991;-76
2022/04/16 06:48:51;;;;;;;48.60;31.02;;;;;;;;;;4978163;28;92444;-76
2022/04/16 06:51:17;;;;;;;44.75;30.50;;;;;;;;;;4973228;28;92709;-77
2022/04/16 06:53:44;;;;;;;46.53;31.58;;;;;;;;;;4975244;28;92466;-76
2022/04/16 06:56:10;;;;;;;42.28;31.05;;;;;;;;;;4974559;28;93691;-73
2022/04/16 06:58:36;;;;;;;46.20;30.98;;;;;;;;;;4973600;28;95470;-76
2022/04/16 07:01:02;;;;;;;44.30;31.30;;;;;;;;;;4975286;28;92402;-78
2022/04/16 07:03:29;;;;;;;39.03;30.00;;;;;;;;;;4958396;28;96288;-75
2022/04/16 07:05:55;;;;;;;40.03;28.00;;;;;;;;;;4975243;28;93687;-77
2022/04/16 07:08:22;;;;;;;38.30;29.52;;;;;;;;;;4975586;28;92945;-77
2022/04/16 07:10:51;;;;;;;44.40;28.50;;;;;;;;;;4962720;28;96113;-76
2022/04/16 07:13:18;;;;;;;40.28;28.55;;;;;;;;;;4976588;28;92988;-79
2022/04/16 07:15:45;;;;;;;42.10;28.90;;;;;;;;;;4974837;28;94412;-78
2022/04/16 07:18:12;;;;;;;36.67;27.25;;;;;;;;;;4958321;28;94197;-77
2022/04/16 07:20:56;;;;;;;37.20;27.75;;;;;;;;;;4987877;28;95480;-79
2022/04/16 07:23:27;;;;;;;;;;;;;;;;;;4968729;28;95861;-78
2022/04/16 07:26:00;;;;;;;32.05;24.92;;;;;;;;;;5003744;28;121468;-78
2022/04/16 07:28:30;;;;;;;38.33;26.10;;;;;;;;;;4984828;28;92787;-79
2022/04/16 07:30:56;;;;;;;35.30;25.80;;;;;;;;;;5000187;28;92817;-76
2022/04/16 07:33:22;;;;;;;29.02;23.92;;;;;;;;;;5007165;28;93841;-75
2022/04/16 07:35:49;;;;;;;29.70;23.23;;;;;;;;;;5007814;28;92663;-77
2022/04/16 07:38:15;;;;;;;26.25;22.98;;;;;;;;;;5005983;28;93688;-78
2022/04/16 07:40:41;;;;;;;31.13;23.95;;;;;;;;;;5004466;28;91647;-78
2022/04/16 07:43:08;;;;;;;27.52;22.65;;;;;;;;;;5006995;28;93603;-78
2022/04/16 07:45:34;;;;;;;26.58;22.15;;;;;;;;;;4979079;28;92999;-78
2022/04/16 07:48:07;;;;;;;30.48;21.75;;;;;;;;;;4998562;28;94603;-77
2022/04/16 07:50:34;;;;;;;25.60;21.25;;;;;;;;;;5002960;28;95264;-80
2022/04/16 07:53:00;;;;;;;26.38;21.17;;;;;;;;;;5004089;28;93722;-80
2022/04/16 07:55:32;;;;;;;22.98;20.58;;;;;;;;;;5008541;28;92932;-79
2022/04/16 07:57:59;;;;;;;24.60;19.83;;;;;;;;;;5002769;28;92941;-78
2022/04/16 08:00:26;;;;;;;21.77;19.00;;;;;;;;;;5004438;28;93106;-76
2022/04/16 08:02:52;;;;;;;23.35;19.73;;;;;;;;;;5004108;28;93645;-74
2022/04/16 08:05:18;;;;;;;21.48;18.90;;;;;;;;;;5006563;28;93074;-73
2022/04/16 08:07:46;;;;;;;20.95;18.05;;;;;;;;;;5004162;28;92238;-74
2022/04/16 08:10:12;;;;;;;23.55;18.50;;;;;;;;;;5002531;28;93485;-73
2022/04/16 08:12:39;;;;;;;18.77;16.75;;;;;;;;;;5004679;28;96052;-73
2022/04/16 08:15:06;;;;;;;31.20;17.65;;;;;;;;;;5008888;28;92374;-73
2022/04/16 08:17:33;;;;;;;22.63;16.73;;;;;;;;;;5010475;28;92618;-73
2022/04/16 08:19:59;;;;;;;32.63;19.33;;;;;;;;;;5009913;28;92375;-73
2022/04/16 08:22:28;;;;;;;21.67;16.67;;;;;;;;;;5007345;28;92982;-75
2022/04/16 08:25:43;;;;;;;19.73;17.00;;;;;;;;;;5010360;28;93831;-80
2022/04/16 08:27:42;;;;;;;21.35;17.63;;;;;;;;;;4996860;28;92320;-80
2022/04/16 08:30:12;;;;;;;36.60;17.85;;;;;;;;;;4992098;28;93077;-81
2022/04/16 08:32:42;;;;;;;22.55;17.60;;;;;;;;;;5007992;28;92177;-79
2022/04/16 08:35:09;;;;;;;21.70;17.63;;;;;;;;;;5008711;28;92307;-81
2022/04/16 08:37:36;;;;;;;19.75;17.63;;;;;;;;;;5009761;28;94847;-80
2022/04/16 08:40:04;;;;;;;19.60;17.50;;;;;;;;;;5004822;28;92656;-79
2022/04/16 08:42:35;;;;;;;19.15;17.05;;;;;;;;;;4987893;28;95206;-81
2022/04/16 08:45:03;;;;;;;18.88;16.70;;;;;;;;;;4980816;28;93098;-82
2022/04/16 08:47:35;;;;;;;17.90;16.10;;;;;;;;;;4984693;28;92322;-81
2022/04/16 08:50:03;;;;;;;18.95;15.45;;;;;;;;;;4988772;28;93108;-78
2022/04/16 08:52:36;;;;;;;20.45;15.98;;;;;;;;;;5009189;28;93459;-75
2022/04/16 08:55:03;;;;;;;20.52;15.85;;;;;;;;;;5002501;28;91617;-75
2022/04/16 08:57:29;;;;;;;17.00;14.23;;;;;;;;;;4980386;28;93062;-73
2022/04/16 08:59:57;;;;;;;17.42;15.68;;;;;;;;;;5012005;28;94071;-74
2022/04/16 09:02:24;;;;;;;18.25;15.07;;;;;;;;;;4988107;28;94628;-81
2022/04/16 09:05:05;;;;;;;16.90;14.55;;;;;;;;;;5004128;28;93736;-80
2022/04/16 09:07:32;;;;;;;15.18;13.68;;;;;;;;;;5006014;28;92330;-84
2022/04/16 09:10:08;;;;;;;15.05;13.43;;;;;;;;;;5003678;28;93700;-79
2022/04/16 09:12:38;;;;;;;17.05;13.48;;;;;;;;;;4999309;28;94592;-79
2022/04/16 09:15:06;;;;;;;17.63;13.75;;;;;;;;;;5010252;28;92475;-81
2022/04/16 09:17:33;;;;;;;15.95;13.00;;;;;;;;;;4999519;28;92684;-81
2022/04/16 09:19:59;;;;;;;13.20;11.88;;;;;;;;;;4994885;28;93326;-77
2022/04/16 09:22:28;;;;;;;12.23;11.02;;;;;;;;;;5010366;28;92276;-80
2022/04/16 09:24:55;;;;;;;14.27;11.70;;;;;;;;;;5002418;28;94682;-80
2022/04/16 09:27:21;;;;;;;11.00;9.90;;;;;;;;;;5006365;28;94687;-77
2022/04/16 09:29:47;;;;;;;10.50;9.60;;;;;;;;;;4987847;28;96309;-77
2022/04/16 09:32:21;;;;;;;9.98;9.07;;;;;;;;;;5005519;28;93280;-78
2022/04/16 09:34:47;;;;;;;9.95;8.40;;;;;;;;;;5008211;28;93513;-79
2022/04/16 09:37:16;;;;;;;10.57;9.57;;;;;;;;;;4988954;28;94353;-80
2022/04/16 09:39:43;;;;;;;11.63;10.43;;;;;;;;;;4971556;28;95958;-81
2022/04/16 09:42:09;;;;;;;12.38;11.18;;;;;;;;;;4995922;28;92948;-77
2022/04/16 09:44:36;;;;;;;12.35;11.10;;;;;;;;;;5009120;28;92974;-83
2022/04/16 09:47:02;;;;;;;14.20;11.45;;;;;;;;;;5008697;28;93394;-81
2022/04/16 09:49:32;;;;;;;11.65;10.38;;;;;;;;;;5003004;28;92226;-79
2022/04/16 09:52:00;;;;;;;12.38;9.90;;;;;;;;;;4980955;28;98862;-77
2022/04/16 09:54:27;;;;;;;12.57;10.13;;;;;;;;;;5008091;28;92334;-80
2022/04/16 09:56:58;;;;;;;10.55;9.45;;;;;;;;;;5009097;28;92929;-80
2022/04/16 09:59:26;;;;;;;9.63;8.68;;;;;;;;;;5005607;28;93359;-75
2022/04/16 10:01:53;;;;;;;9.18;8.30;;;;;;;;;;5009996;28;92242;-78
2022/04/16 10:04:20;;;;;;;10.43;8.65;;;;;;;;;;5012521;28;92919;-80
2022/04/16 10:06:47;;;;;;;9.25;8.35;;;;;;;;;;4990727;28;94843;-79
2022/04/16 10:09:16;;;;;;;7.72;7.15;;;;;;;;;;5004561;28;93355;-77
2022/04/16 10:14:43;;;;;;;10.55;8.43;;;;;;;;;;5003283;28;92308;-85
2022/04/16 10:17:28;;;;;;;12.65;7.78;;;;;;;;;;5005574;28;94635;-78
2022/04/16 10:20:04;;;;;;;7.45;6.75;;;;;;;;;;5000672;28;92991;-77
2022/04/16 10:22:30;;;;;;;7.20;6.60;;;;;;;;;;4985796;28;92726;-78
2022/04/16 10:24:58;;;;;;;6.68;6.07;;;;;;;;;;5008999;28;93390;-78
2022/04/16 10:27:31;;;;;;;7.05;6.43;;;;;;;;;;5005725;28;93667;-81
2022/04/16 10:29:59;;;;;;;7.00;6.40;;;;;;;;;;5000792;28;92358;-80
2022/04/16 10:32:42;;;;;;;6.82;6.40;;;;;;;;;;4975136;28;96004;-78
2022/04/16 10:35:12;;;;;;;7.82;7.15;;;;;;;;;;5004653;28;91612;-77
2022/04/16 10:37:40;;;;;;;7.38;6.68;;;;;;;;;;5007889;28;93642;-78
2022/04/16 10:40:19;;;;;;;7.22;6.53;;;;;;;;;;5007560;28;92910;-78
2022/04/16 10:42:50;;;;;;;7.43;6.82;;;;;;;;;;4977863;28;94721;-77
2022/04/16 10:45:19;;;;;;;7.97;7.38;;;;;;;;;;4994440;28;95277;-77
2022/04/16 10:47:49;;;;;;;7.22;6.63;;;;;;;;;;5016897;28;93238;-75
2022/04/16 10:50:19;;;;;;;6.72;6.22;;;;;;;;;;5020692;28;92449;-75
2022/04/16 10:52:53;;;;;;;6.35;5.85;;;;;;;;;;5016528;28;93713;-78
2022/04/16 10:55:22;;;;;;;6.60;6.00;;;;;;;;;;5017696;28;92215;-77
2022/04/16 10:57:58;;;;;;;6.28;5.80;;;;;;;;;;5017498;28;92839;-76
2022/04/16 11:00:34;;;;;;;6.10;5.70;;;;;;;;;;4999250;28;94468;-75
2022/04/16 11:03:06;;;;;;;5.85;5.35;;;;;;;;;;5017093;28;92751;-77
2022/04/16 11:05:34;;;;;;;6.73;6.23;;;;;;;;;;4999639;28;92816;-78
2022/04/16 11:08:00;;;;;;;6.55;6.05;;;;;;;;;;5015218;28;95570;-76
2022/04/16 11:10:27;;;;;;;7.45;6.78;;;;;;;;;;5017185;28;92228;-77
2022/04/16 11:12:54;;;;;;;7.28;6.68;;;;;;;;;;5019696;28;93540;-78
2022/04/16 11:15:26;;;;;;;7.32;6.63;;;;;;;;;;5017171;28;92173;-78
2022/04/16 11:17:53;;;;;;;7.78;6.72;;;;;;;;;;4998851;28;96983;-76
2022/04/16 11:20:21;;;;;;;7.55;6.82;;;;;;;;;;5016496;28;94664;-75
2022/04/16 11:22:48;;;;;;;8.95;8.15;;;;;;;;;;5016400;28;92308;-75
2022/04/16 11:25:15;;;;;;;8.45;7.75;;;;;;;;;;5016796;28;93173;-75
2022/04/16 11:36:06;;;;;;;7.88;7.28;;;;;;;;;;5019260;28;93829;-74
2022/04/16 11:38:33;;;;;;;8.23;7.40;;;;;;;;;;5016507;28;93897;-74
2022/04/16 11:41:01;;;;;;;8.55;7.75;;;;;;;;;;5016158;28;93722;-72
2022/04/16 11:43:30;;;;;;;8.27;7.22;;;;;;;;;;5018646;28;92311;-74
2022/04/16 11:45:58;;;;;;;8.43;7.25;;;;;;;;;;5019934;28;92928;-72
2022/04/16 11:48:25;;;;;;;7.35;6.75;;;;;;;;;;5016646;28;94078;-72
2022/04/16 11:50:52;;;;;;;7.85;7.15;;;;;;;;;;5020406;28;91527;-73
2022/04/16 11:53:18;;;;;;;9.13;7.63;;;;;;;;;;5019784;28;92535;-72
2022/04/16 11:55:56;;;;;;;7.60;6.65;;;;;;;;;;5019930;28;93563;-71
2022/04/16 11:58:29;;;;;;;7.25;6.63;;;;;;;;;;5021599;28;94659;-72
2022/04/16 12:00:55;;;;;;;6.97;6.38;;;;;;;;;;5018880;28;93655;-71
2022/04/16 12:03:33;;;;;;;7.65;6.85;;;;;;;;;;4985869;28;92322;-73
2022/04/16 12:06:01;;;;;;;7.55;6.75;;;;;;;;;;5019842;28;92427;-72
2022/04/16 12:08:30;;;;;;;6.63;6.13;;;;;;;;;;5019388;28;93894;-73
2022/04/16 12:10:59;;;;;;;7.20;6.60;;;;;;;;;;5019719;28;92227;-77
2022/04/16 12:13:33;;;;;;;6.10;5.70;;;;;;;;;;5019538;28;93270;-74
2022/04/16 12:16:03;;;;;;;7.05;6.50;;;;;;;;;;5019995;28;92637;-76
2022/04/16 12:18:34;;;;;;;6.78;6.18;;;;;;;;;;5002562;28;92328;-81
2022/04/16 12:21:05;;;;;;;6.40;5.90;;;;;;;;;;5022750;28;92855;-81
2022/04/16 12:23:31;;;;;;;7.35;6.68;;;;;;;;;;5017993;28;94680;-80
2022/04/16 12:26:07;;;;;;;6.65;6.05;;;;;;;;;;5001177;28;97449;-79
2022/04/16 12:28:41;;;;;;;10.52;5.88;;;;;;;;;;5019155;28;93322;-80
2022/04/16 12:31:08;;;;;;;5.80;5.30;;;;;;;;;;5019673;28;92227;-79
2022/04/16 12:33:34;;;;;;;6.90;5.80;;;;;;;;;;5001630;28;96197;-81
2022/04/16 12:36:00;;;;;;;6.10;5.60;;;;;;;;;;5019309;28;94015;-80
2022/04/16 12:38:27;;;;;;;5.70;5.28;;;;;;;;;;5018936;28;92399;-79
2022/04/16 12:41:04;;;;;;;5.00;4.70;;;;;;;;;;5022478;28;93613;-80
2022/04/16 12:43:30;;;;;;;4.43;4.10;;;;;;;;;;5004922;28;92483;-80
2022/04/16 12:45:56;;;;;;;7.72;4.57;;;;;;;;;;5010368;28;94019;-81
2022/04/16 12:48:23;;;;;;;4.97;4.60;;;;;;;;;;5001314;28;96011;-78
2022/04/16 12:50:49;;;;;;;4.20;3.90;;;;;;;;;;4989008;28;92492;-77
2022/04/16 12:53:16;;;;;;;4.75;4.07;;;;;;;;;;5006989;28;93125;-78
2022/04/16 12:55:42;;;;;;;4.85;4.45;;;;;;;;;;5003866;28;93676;-79
2022/04/16 12:58:09;;;;;;;4.60;4.20;;;;;;;;;;5009192;28;92381;-80
2022/04/16 13:00:35;;;;;;;6.05;4.43;;;;;;;;;;5010882;28;94671;-76
2022/04/16 13:03:02;;;;;;;4.25;3.83;;;;;;;;;;5009412;28;93413;-80
2022/04/16 13:05:32;;;;;;;6.70;4.00;;;;;;;;;;5009868;28;92886;-79
2022/04/16 13:08:19;;;;;;;4.22;3.92;;;;;;;;;;5010120;28;92897;-81
2022/04/16 13:10:45;;;;;;;4.20;3.88;;;;;;;;;;5009932;28;92597;-80
2022/04/16 13:13:11;;;;;;;3.45;3.25;;;;;;;;;;4986182;28;95916;-80
2022/04/16 13:15:43;;;;;;;4.45;4.15;;;;;;;;;;5002888;28;93172;-80
2022/04/16 13:18:09;;;;;;;4.00;3.70;;;;;;;;;;4987639;28;92380;-80
2022/04/16 13:20:36;;;;;;;3.95;3.47;;;;;;;;;;5007386;28;92855;-79
2022/04/16 13:23:03;;;;;;;4.15;3.85;;;;;;;;;;4985707;28;93444;-79
2022/04/16 13:25:33;;;;;;;4.75;4.20;;;;;;;;;;5006003;28;92432;-78
2022/04/16 13:27:59;;;;;;;4.43;4.13;;;;;;;;;;5005332;28;93054;-77
2022/04/16 13:30:26;;;;;;;4.55;4.20;;;;;;;;;;4988564;28;91554;-80
2022/04/16 13:32:52;;;;;;;6.20;3.92;;;;;;;;;;5008359;28;92304;-79
2022/04/16 13:35:19;;;;;;;3.85;3.55;;;;;;;;;;4992919;28;92366;-78
2022/04/16 13:37:45;;;;;;;3.17;2.97;;;;;;;;;;5014784;28;94666;-79
2022/04/16 13:42:58;;;;;;;4.35;3.13;;;;;;;;;;5007695;28;93675;-76
2022/04/16 13:45:26;;;;;;;4.00;3.70;;;;;;;;;;5005707;28;92279;-80
2022/04/16 13:47:55;;;;;;;3.63;3.43;;;;;;;;;;5010616;28;93120;-80
2022/04/16 13:50:22;;;;;;;3.40;3.10;;;;;;;;;;4983407;28;92370;-80
2022/04/16 13:52:48;;;;;;;6.05;3.10;;;;;;;;;;5008580;28;94839;-81
2022/04/16 13:55:14;;;;;;;3.75;3.45;;;;;;;;;;5006010;28;92622;-79
2022/04/16 13:57:41;;;;;;;6.93;2.75;;;;;;;;;;5001547;28;92611;-79
2022/04/16 14:00:07;;;;;;;5.00;3.05;;;;;;;;;;5008613;28;93124;-75
2022/04/16 14:02:37;;;;;;;4.68;2.83;;;;;;;;;;5000098;28;95031;-74
2022/04/16 14:07:49;;;;;;;3.72;2.97;;;;;;;;;;5006122;28;94015;-79
2022/04/16 14:10:17;;;;;;;3.20;3.00;;;;;;;;;;5004713;28;92810;-79
2022/04/16 14:12:45;;;;;;;3.10;2.90;;;;;;;;;;5006269;28;93443;-79
2022/04/16 14:15:12;;;;;;;5.57;2.83;;;;;;;;;;5015203;28;93512;-80
2022/04/16 14:17:41;;;;;;;3.10;2.90;;;;;;;;;;4988501;28;92697;-80
2022/04/16 14:20:08;;;;;;;3.22;3.03;;;;;;;;;;5012161;28;92904;-79
2022/04/16 14:22:37;;;;;;;3.17;2.88;;;;;;;;;;5005528;28;92715;-81
2022/04/16 14:25:04;;;;;;;5.13;3.03;;;;;;;;;;5006474;28;92656;-81
2022/04/16 14:27:31;;;;;;;5.55;3.08;;;;;;;;;;4995608;28;94980;-81
2022/04/16 14:29:57;;;;;;;3.63;3.13;;;;;;;;;;5000834;28;93887;-79
2022/04/16 14:32:24;;;;;;;4.15;3.80;;;;;;;;;;5003924;28;92965;-79
2022/04/16 14:34:52;;;;;;;3.65;3.35;;;;;;;;;;5008603;28;94034;-80
2022/04/16 14:37:19;;;;;;;4.00;3.70;;;;;;;;;;5013462;28;92618;-79
2022/04/16 14:39:46;;;;;;;4.45;2.80;;;;;;;;;;5004691;28;93435;-79
2022/04/16 14:42:13;;;;;;;3.85;3.20;;;;;;;;;;5006440;28;93726;-79
2022/04/16 14:44:51;;;;;;;3.40;3.10;;;;;;;;;;5009601;28;91557;-80
2022/04/16 14:47:21;;;;;;;2.90;2.70;;;;;;;;;;5007376;28;93534;-80
2022/04/16 14:49:49;;;;;;;2.83;2.58;;;;;;;;;;5001230;28;94146;-78
2022/04/16 14:52:15;;;;;;;4.53;2.70;;;;;;;;;;4982600;28;94844;-78
2022/04/16 14:54:42;;;;;;;3.50;2.70;;;;;;;;;;4982280;28;93085;-78
2022/04/16 14:57:28;;;;;;;2.90;2.70;;;;;;;;;;4985385;28;92353;-78